Weather observations for the past three days for
Port Aransas, Mustang Beach Airport
Metric (Imperial)
Date Time (cdt) Wind (kph) Vis. (km) Weather Sky Cond. Temperature (ºC) Relative Humidity Wind Chill (°C) Heat Index (°C) Pressure Precipitation (cm)
Air Dwpt 6 hour altimeter (cm) sea level (mb) 1 hr 3 hr 6 hr
Max. Min.
04 09:35 SE 22 G 28 16.09 Fair CLR 25 18.1 66% 26 76.15 0.0
04 09:15 S 24 16.09 Partly Cloudy SCT026 24.6 17.9 66% 26 76.15 0.0
04 08:55 S 24 16.09 Partly Cloudy SCT026 24.5 17.9 67% 25 76.15 0.0
04 08:35 S 20 16.09 Partly Cloudy SCT024 SCT030 SCT038 24.1 17.8 68% 25 76.15 0.0
04 08:15 S 17 16.09 Mostly Cloudy SCT024 BKN032 23.7 18.1 71% 76.17 0.0
04 07:55 SE 22 16.09 Mostly Cloudy SCT024 BKN032 23.3 17.8 71% 76.15 0.0
04 07:35 S 19 G 30 16.09 Mostly Cloudy SCT026 BKN032 BKN038 23.2 17.7 71% 76.15 0.0
04 07:15 S 20 G 28 16.09 Mostly Cloudy SCT027 BKN031 22.9 17.4 71% 76.15 0.0
04 06:55 S 19 16.09 Partly Cloudy SCT027 SCT032 22.8 17.2 22.8 22 71% 76.15 0.0
04 06:35 S 20 16.09 Partly Cloudy SCT029 SCT033 22.7 17 70% 76.15 0.0
04 06:15 S 19 16.09 Mostly Cloudy BKN029 BKN033 22.7 16.8 69% 76.15 0.0
04 05:55 S 17 G 28 16.09 Partly Cloudy SCT029 SCT035 22.6 16.7 69% 76.17 0.0
04 05:35 SE 19 16.09 Mostly Cloudy BKN029 BKN035 22.6 16.4 68% 76.15 0.0
04 05:15 SE 17 16.09 Mostly Cloudy BKN031 BKN037 22.5 16.3 68% 76.2 0.0
04 04:55 S 15 16.09 Mostly Cloudy BKN031 22.4 16 67% 76.2 0.0
04 04:35 S 15 16.09 Partly Cloudy SCT033 22.5 15.9 66% 76.2 0.0
04 04:15 S 15 16.09 Partly Cloudy SCT033 22.4 15.5 65% 76.2 0.0
04 03:55 SE 19 G 30 16.09 Fair CLR 22.3 15.2 64% 76.17 0.0
04 03:35 SE 19 16.09 Fair CLR 22.2 15 64% 76.17 0.0
04 03:15 SE 19 16.09 Fair CLR 22.2 14.7 63% 76.23 0.0
04 02:55 SE 15 16.09 Fair CLR 22.1 14.6 63% 76.25 0.0
04 02:35 SE 20 G 30 16.09 Fair CLR 22.2 14.1 60% 76.28 0.0
04 02:15 SE 19 16.09 Fair CLR 22.4 14.3 60% 76.28 0.0
04 01:55 SE 15 16.09 Fair CLR 22.2 14.2 61% 76.3 0.0
04 01:35 SE 17 16.09 Fair CLR 22.2 13.9 59% 76.33 0.0
04 01:15 SE 17 16.09 Fair CLR 22.4 14.1 60% 76.33 0.0
04 00:55 SE 17 16.09 Fair CLR 22.3 13.8 24 22.2 59% 76.35 0.0
04 00:35 SE 20 16.09 Partly Cloudy SCT037 22.4 14 59% 76.38 0.0
04 00:15 SE 19 16.09 Fair CLR 22.5 14 59% 76.4 0.0
03 23:55 SE 19 16.09 Fair CLR 22.6 13.9 58% 76.43 0.0
03 23:35 SE 17 16.09 Fair CLR 22.6 13.6 57% 76.43 0.0
03 23:15 SE 15 16.09 Fair CLR 22.6 13.6 57% 76.45 0.0
03 22:55 SE 17 16.09 Fair CLR 22.7 13.8 57% 76.45 0.0
03 22:35 SE 17 16.09 Fair CLR 22.6 13.8 58% 76.43 0.0
03 22:15 SE 20 16.09 Fair CLR 22.7 13.1 55% 76.43 0.0
03 21:55 SE 15 16.09 Fair CLR 22.7 13.1 55% 76.43 0.0
03 21:35 SE 17 16.09 Fair CLR 22.7 13.3 55% 76.43 0.0
03 21:15 SE 17 16.09 Fair CLR 22.8 12.8 53% 76.4 0.0
03 20:55 E 19 16.09 Fair CLR 22.8 12.9 54% 76.4 0.0
03 20:35 E 19 16.09 Fair CLR 22.8 12.7 53% 76.38 0.0
03 20:15 E 17 16.09 Fair CLR 22.9 13 54% 76.38 0.0
03 19:55 SE 19 16.09 Fair CLR 23 12.8 53% 76.4 0.0
03 19:35 E 19 16.09 Fair CLR 23.4 12.7 51% 76.4 0.0
03 19:15 E 19 16.09 Fair CLR 23.7 12.9 51% 76.4 0.0
03 18:55 E 19 16.09 Fair CLR 24 13.2 26 23.8 51% 25 76.4 0.0
03 18:35 E 20 16.09 Fair CLR 24.1 13.2 51% 25 76.4 0.0
03 18:15 SE 19 16.09 Fair CLR 24.6 13.5 50% 26 76.43 0.0
03 17:55 E 19 16.09 Fair CLR 24.6 13.1 49% 26 76.43 0.0
03 17:35 E 19 16.09 Fair CLR 24.7 13.4 49% 26 76.43 0.0
03 17:15 E 17 16.09 Fair CLR 25 13.8 50% 26 76.45 0.0
03 16:55 E 19 16.09 Fair CLR 25.3 13.5 48% 26 76.48 0.0
03 16:35 E 17 16.09 Fair CLR 24.8 13.6 50% 26 76.5 0.0
03 16:15 E 17 16.09 Fair CLR 25.1 13.5 49% 26 76.53 0.0
03 15:55 E 17 16.09 Fair CLR 25.2 13.2 47% 26 76.56 0.0
03 15:35 E 19 16.09 Fair CLR 25.3 13.8 49% 26 76.56 0.0
03 15:15 E 20 16.09 Fair CLR 25.3 13 47% 26 76.58 0.0
03 14:55 E 19 16.09 Fair CLR 25.3 12.4 45% 26 76.63 0.0
03 14:35 E 15 16.09 Fair CLR 25.4 12.3 44% 26 76.63 0.0
03 14:15 E 17 16.09 Fair CLR 25.1 12.3 45% 26 76.66 0.0
03 13:55 E 15 16.09 Fair CLR 25.3 11.9 43% 26 76.66 0.0
03 13:35 E 15 16.09 Fair CLR 25 11.6 43% 26 76.68 0.0
03 13:15 E 15 16.09 Fair CLR 25.1 11.2 42% 26 76.71 0.0
03 12:55 E 15 16.09 Fair CLR 25.2 11.2 25.7 18 42% 26 76.73 0.0
03 12:35 E 20 16.09 Fair CLR 25.3 11.2 41% 26 76.73 0.0
03 12:15 E 20 16.09 Fair CLR 25.3 11.7 43% 26 76.76 0.0
03 11:55 E 17 16.09 Fair CLR 25 11.7 43% 26 76.76 0.0
03 11:35 NE 13 16.09 Fair CLR 24.4 12.5 48% 26 76.76 0.0
03 11:15 NE 17 16.09 Fair CLR 24.4 13.5 51% 26 76.76 0.0
03 10:55 NE 11 16.09 Fair CLR 24.3 14 53% 26 76.76 0.0
03 10:35 NE 15 16.09 Fair CLR 24.2 13.9 53% 25 76.76 0.0
03 10:15 NE 19 16.09 Fair CLR 24 13.6 52% 25 76.76 0.0
03 09:55 N 15 16.09 Fair CLR 23.4 14.9 59% 76.73 0.0
03 09:35 N 17 16.09 Fair CLR 22.6 15.6 65% 76.73 0.0
03 09:15 N 15 16.09 Fair CLR 22.1 16.6 71% 76.73 0.0
03 08:55 N 19 16.09 Partly Cloudy SCT050 21.9 16.6 72% 76.73 0.0
03 08:35 N 15 16.09 Partly Cloudy SCT050 21.9 16.3 71% 76.71 0.0
03 08:15 N 13 16.09 Partly Cloudy SCT050 21.3 16.8 76% 76.68 0.0
03 07:55 N 7 16.09 Fair CLR 20.6 16.8 79% 76.63 0.0
03 07:15 N 7 16.09 Fair CLR 18.2 15.4 84% 76.61 0.0
03 06:55 N 11 16.09 Fair CLR 18.3 14.6 19.6 17.8 79% 76.61 0.0
03 06:35 N 7 16.09 Fair CLR 18.3 15.2 82% 76.61 0.0
03 06:15 N 7 16.09 Fair CLR 18.5 15.7 84% 76.61 0.0
03 05:55 N 7 16.09 Fair CLR 18.2 15.8 86% 76.61 0.0
03 05:35 N 7 16.09 Fair CLR 18.1 15.7 86% 76.61 0.0
03 05:15 N 9 16.09 Fair CLR 17.8 15.4 86% 76.61 0.0
03 04:55 N 9 16.09 Fair CLR 18 15.2 84% 76.61 0.0
03 04:35 N 11 16.09 Fair CLR 18 15 83% 76.61 0.0
03 04:15 N 7 16.09 Fair CLR 18.3 14.7 80% 76.61 0.0
03 03:55 N 9 16.09 Fair CLR 18.8 13.6 72% 76.63 0.0
03 03:35 NE 9 16.09 Fair CLR 18.9 12.9 68% 76.63 0.0
03 03:15 N 11 16.09 Fair CLR 19.1 12.7 67% 76.63 0.0
03 02:55 NE 11 16.09 Fair CLR 19.1 13 68% 76.63 0.0
03 02:35 NE 11 16.09 Fair CLR 19.2 13.6 70% 76.63 0.0
03 02:15 N 9 16.09 Fair CLR 19 13.9 72% 76.66 0.0
03 01:55 N 9 16.09 Fair CLR 19.1 13.6 71% 76.66 0.0
03 01:35 N 7 16.09 Fair CLR 19.5 14.8 74% 76.66 0.0
03 01:15 N 7 16.09 Fair CLR 19.1 15.3 79% 76.63 0.0
03 00:55 N 9 16.09 Fair CLR 19.5 15 23.2 19.3 75% 76.66 0.0
03 00:35 N 6 16.09 Fair CLR 19.6 14.5 73% 76.63 0.0
03 00:15 N 7 16.09 Fair CLR 19.8 14.7 73% 76.63 0.0
02 23:55 N 7 16.09 Fair CLR 19.9 14.6 72% 76.63 0.0
02 23:35 N 9 16.09 Fair CLR 20.1 14 68% 76.61 0.0
02 23:15 N 7 16.09 Fair CLR 20.4 14 67% 76.61 0.0
02 22:55 N 11 16.09 Fair CLR 21 12.8 60% 76.61 0.0
02 22:35 N 13 16.09 Fair CLR 21.5 12 55% 76.61 0.0
02 22:15 N 15 16.09 Fair CLR 21.8 11.9 54% 76.58 0.0
02 21:55 NE 15 16.09 Fair CLR 21.7 11.9 54% 76.56 0.0
02 21:35 N 17 16.09 Fair CLR 21.6 12.2 55% 76.53 0.0
02 21:15 NE 19 16.09 Fair CLR 21.8 11.7 53% 76.5 0.0
02 20:55 NE 17 16.09 Fair CLR 21.9 11.7 52% 76.5 0.0
02 20:35 NE 15 16.09 Fair CLR 22.3 11.1 49% 76.48 0.0
02 20:15 NE 17 16.09 Fair CLR 22.5 10.8 48% 76.48 0.0
02 19:55 NE 17 16.09 Fair CLR 22.7 11 48% 76.48 0.0
02 19:35 NE 15 16.09 Fair CLR 23 11.4 48% 76.48 0.0
02 19:15 NE 15 16.09 Fair CLR 23.1 11.6 48% 76.48 0.0
02 18:55 NE 19 16.09 Fair CLR 23 11.4 24.2 21.4 48% 76.45 0.0
02 18:35 NE 19 16.09 Fair CLR 23.5 10.7 45% 76.45 0.0
02 18:15 NE 20 16.09 Partly Cloudy SCT049 23.7 11 45% 76.45 0.0
02 17:55 N 20 G 33 16.09 Partly Cloudy SCT049 23.7 11.8 47% 76.45 0.0
02 17:35 NE 20 16.09 Mostly Cloudy BKN049 23.9 11.6 46% 25 76.45 0.0
02 17:15 NE 17 16.09 Partly Cloudy SCT049 23.7 11.3 46% 76.45 0.0
02 16:55 NE 26 16.09 Partly Cloudy SCT047 23.3 11.5 48% 76.45 0.0
02 16:35 NE 24 16.09 Fair CLR 23.5 11.1 46% 76.45 0.0
02 16:15 NE 24 16.09 Partly Cloudy SCT045 23.4 11.6 48% 76.48 0.0
02 15:55 NE 24 G 39 16.09 Fair CLR 23.3 11.7 48% 76.5 0.0
02 15:35 NE 26 G 35 16.09 Fair CLR 23.2 10.8 46% 76.5 0.0
02 15:15 NE 26 G 33 16.09 Fair CLR 23.1 10.9 46% 76.5 0.0
02 14:55 NE 28 G 37 16.09 Fair CLR 23 11.1 47% 76.53 0.0
02 14:35 NE 26 G 37 16.09 Fair CLR 22.9 11.2 48% 76.53 0.0
02 14:15 NE 30 G 37 16.09 Fair CLR 22.8 11.4 49% 76.53 0.0
02 13:55 NE 24 16.09 Fair CLR 22.7 11.4 49% 76.53 0.0
02 13:35 NE 24 G 37 16.09 Fair CLR 22.3 11.8 52% 76.56 0.0
02 13:15 NE 26 G 43 16.09 Fair CLR 22.1 12.2 54% 76.56 0.0
02 12:55 NE 26 G 33 16.09 Fair CLR 21.6 11.1 22.1 14.8 51% 76.58 0.0
02 12:35 NE 26 16.09 Fair CLR 21.1 11.5 54% 76.58 0.0
02 12:15 N 30 G 37 16.09 Fair CLR 20.3 12.1 59% 76.58 0.0
02 11:55 N 26 16.09 Fair CLR 19.8 12.3 62% 76.58 0.0
02 11:35 N 28 G 33 16.09 Partly Cloudy SCT020 19 12.7 67% 76.61 0.0
02 11:15 N 26 G 31 16.09 Mostly Cloudy BKN020 18.2 12.5 70% 76.61 0.0
02 10:55 N 26 G 43 16.09 Overcast OVC018 18 12.5 70% 76.58 0.0
02 10:35 N 28 G 35 16.09 Overcast OVC018 18 13.1 73% 76.56 0.0
02 10:15 N 30 G 35 16.09 Overcast OVC016 17.1 12.9 76% 76.56 0.0
02 09:55 N 33 G 41 16.09 Overcast and Breezy OVC014 16.8 12.9 78% 76.53 0.0
02 09:35 N 35 16.09 Overcast and Breezy OVC014 16.4 13 80% 76.5 0.0
02 09:15 N 30 16.09 Overcast OVC012 16.1 12.8 81% 76.45 0.0
02 08:55 N 35 G 50 16.09 Overcast and Breezy OVC012 16.1 13.1 83% 76.43 0.0
02 08:35 N 41 G 48 16.09 Overcast and Breezy OVC012 16 13.2 84% 76.4 0.0
02 08:15 N 39 G 46 16.09 Overcast and Breezy OVC012 15.6 13.2 86% 76.4 0.0
02 07:55 N 39 16.09 Overcast and Breezy OVC010 15.3 13 86% 76.38 0.0
02 07:35 N 37 G 44 16.09 Overcast and Breezy OVC010 15.2 13 87% 76.38 0.0
02 07:15 N 30 16.09 Overcast OVC010 15.1 13 87% 76.35 0.0
02 06:55 N 31 16.09 Overcast OVC008 14.8 12.9 16.9 14.6 89% 76.33 0.0
02 06:35 N 28 G 35 16.09 Overcast OVC008 14.7 12.8 88% 76.33 0.0
02 06:15 N 31 16.09 Overcast OVC008 14.9 12.9 88% 76.3 0.0
02 05:55 N 28 16.09 Overcast OVC008 14.9 13 89% 76.3 0.0
02 05:35 N 24 16.09 Overcast OVC008 15 13 88% 76.3 0.0
02 05:15 N 24 16.09 Overcast OVC008 15 13.1 89% 76.3 0.0
02 04:55 N 20 16.09 Overcast OVC008 15.1 13.1 88% 76.3 0.0
02 04:35 N 24 16.09 Overcast OVC008 15.2 13.2 88% 76.28 0.0
02 04:15 N 28 16.09 Overcast OVC010 15.6 13.6 88% 76.25 0.0
02 03:55 N 24 G 35 16.09 Overcast OVC010 15.7 13.5 87% 76.25 0.0
02 03:35 N 31 16.09 Overcast OVC010 15.7 13.5 87% 76.25 0.0
02 03:15 N 30 16.09 Overcast OVC011 16.1 13.8 86% 76.23 0.0
02 02:55 N 31 16.09 Overcast OVC011 16.2 13.8 86% 76.2 0.0
02 02:35 N 22 16.09 Overcast OVC013 16.2 13.6 85% 76.23 0.0
02 02:15 N 28 G 44 16.09 Overcast BKN013 OVC018 16.2 13.5 84% 76.2 0.0
02 01:55 N 33 16.09 Overcast and Breezy BKN015 OVC019 16.7 13.7 83% 76.23 0.0
02 01:35 N 35 16.09 Overcast and Breezy OVC013 16.8 14.2 85% 76.23 0.0
02 01:15 N 33 G 41 16.09 Overcast and Breezy OVC011 16.9 14.4 85% 76.2 0.0
02 00:55 N 37 G 50 16.09 Overcast and Breezy OVC011 16.9 14.6 19.4 16.8 86% 76.17 0.0
02 00:35 N 39 G 46 16.09 Overcast and Breezy OVC011 17.2 15 87% 76.15 0.0
02 00:15 N 37 G 44 16.09 Overcast and Breezy OVC011 17.4 15.3 88% 76.15 0.0
01 23:55 N 33 16.09 Overcast and Breezy OVC011 17.5 15.4 88% 76.12 0.0
01 23:35 N 37 G 44 16.09 Overcast and Breezy OVC011 17.8 15.6 87% 76.1 0.0
01 23:15 N 41 G 48 16.09 Overcast and Breezy OVC011 18.1 15.9 87% 76.07 0.0
01 22:55 N 37 G 48 16.09 Overcast and Breezy OVC013 18.4 16 86% 76.02 0.0
01 22:35 N 43 G 52 16.09 Overcast and Windy OVC013 18.4 16 86% 76.02 0.0
01 22:15 N 37 G 50 16.09 Overcast and Breezy OVC013 18.6 16.1 85% 76 0.0
01 21:55 N 39 G 54 16.09 Overcast and Breezy OVC013 18.6 16.1 85% 75.92 0.0
01 21:35 N 46 G 56 16.09 Overcast and Windy OVC013 18.6 16.1 85% 75.9 0.0
01 21:15 N 43 G 56 16.09 Overcast and Windy BKN013 OVC075 18.7 16.1 85% 75.84 0.0
01 20:55 N 43 G 54 16.09 Overcast and Windy OVC013 18.8 16.4 86% 75.84 0.0
01 20:15 N 43 G 61 16.09 Overcast and Windy OVC013 18.7 16.6 88% 75.82 0.0
01 19:55 N 43 G 63 16.09 Overcast and Windy OVC013 18.8 16.8 88% 75.79 0.0
01 19:35 N 44 G 59 16.09 Overcast and Windy BKN013 OVC060 19.2 17.2 88% 75.79 0.0
01 19:15 N 48 G 57 16.09 Thunderstorm in Vicinity and Windy OVC011 19.3 17.6 90% 75.74 0.0
01 18:55 N 43 G 59 16.09 Thunderstorm and Windy SCT007 OVC011 19.4 18 23.4 19.2 92% 75.74 0.0 0.46 0.56
01 18:35 N 41 G 56 16.09 Thunderstorm in Vicinity and Breezy BKN007 BKN070 19.5 18.4 93% 75.69 0.0 0.46
01 18:15 N 50 G 61 2.01 Heavy Rain Fog/Mist and Windy OVC009 20.2 18.8 92% 75.64 0.0 0.41
01 17:55 N 31 16.09 Thunderstorm in Vicinity BKN009 OVC031 20.1 18.8 92% 75.51 0.0
01 17:35 NE 26 G 39 11.27 Overcast BKN007 BKN014 OVC031 20.1 18.8 92% 75.51 0.0
01 17:15 N 30 G 44 6.44 Light Drizzle Fog/Mist OVC009 20 18.8 93% 75.57 0.0
01 16:55 N 31 G 37 11.27 Fog/Mist OVC009 20 19 94% 75.59 0.0
01 16:35 N 30 G 39 8.05 Thunderstorm Fog/Mist in Vicinity SCT007 OVC013 20.3 18.9 92% 75.54 0.0
01 16:15 N 31 16.09 Overcast BKN011 OVC020 20.6 19.2 92% 75.54 0.0
01 15:55 N 31 16.09 Thunderstorm in Vicinity SCT009 OVC018 20.8 19.4 92% 75.57 0.0 0.03 0.1
01 15:35 N 37 G 43 11.27 Overcast and Breezy SCT008 OVC014 20.9 19.6 92% 75.54 0.0 0.03
01 15:15 N 31 11.27 Overcast BKN006 OVC014 21.5 20.3 93% 75.54 0.0
01 14:55 N 22 11.27 Overcast BKN008 OVC017 21.9 20.6 92% 75.57 0.0 0.05
01 14:35 N 24 16.09 Overcast SCT008 OVC015 21.9 20.6 92% 75.57 0.0 0.05
01 14:15 NE 20 11.27 Drizzle SCT008 OVC017 21.8 20.4 92% 75.49 0.0 0.05
01 13:55 NE 22 16.09 Light Drizzle BKN010 OVC016 22.2 20.4 90% 75.54 0.0
01 13:35 N 26 G 33 16.09 Overcast BKN010 BKN017 OVC026 22.9 20.8 88% 75.54 0.0
01 13:15 N 20 16.09 Overcast OVC010 23.1 21.1 89% 75.54 0.0
01 12:55 N 24 16.09 Overcast OVC010 23.3 21.3 25.6 22.5 89% 75.57 0.0 0.15
01 12:35 N 28 16.09 Overcast OVC010 23.6 21.8 90% 75.59 0.0
01 12:15 N 30 16.09 Overcast OVC008 23.7 22.1 91% 75.62 0.0
01 11:55 NE 20 16.09 Light Rain OVC008 23.4 22 92% 75.64 0.0
01 11:35 N 19 16.09 Overcast BKN008 BKN012 OVC017 23.4 22.1 92% 75.69 0.0
01 11:15 N 19 16.09 Overcast SCT015 BKN025 OVC037 23.6 22.2 92% 75.72 0.0
01 10:55 N 20 16.09 Overcast SCT010 BKN019 OVC033 23.2 21.8 92% 75.69 0.0 0.03
01 10:35 N 22 16.09 Overcast BKN010 OVC014 22.6 21.2 92% 75.69 0.0 0.03
01 10:15 N 24 G 39 16.09 Light Rain SCT007 BKN012 OVC021 22.6 21.2 92% 75.69 0.0 0.03
Date Time (cdt) Wind (kph) Vis. (km) Weather Sky Cond. Air Dwpt Max. Min. Relative Humidity Wind Chill (°C) Heat Index (°C) altimeter (cm) sea level (mb) 1 hr 3 hr 6 hr
6 hour
Temperature (ºC) Pressure Precipitation (cm)